< Cyclone 198010 1980 Season Cyclone 198012 >
Cyclone 198011 (FRED)
General InformationTrack Information on Google Maps || ResourceGoogle EarthGE AnimationAtom FeedGeoJSON
Detalied Best Track (Time Zone = UTC)
Year Month Day Hour Lat. Long. Pressure (hPa) Wind (kt) Class Image Chart
1980 2 20 00 -11.5 102.3 1005 0 0 -- --
1980 2 20 06 -11.6 102.6 1002 0 0 -- --
1980 2 20 12 -11.8 102.8 1000 0 0 -- --
1980 2 20 18 -12.0 103.0 997 0 0 -- --
1980 2 21 00 -12.3 103.0 994 0 0 -- --
1980 2 21 06 -12.6 102.9 989 0 0 -- --
1980 2 21 12 -12.9 102.8 984 0 0 -- --
1980 2 21 18 -13.0 102.3 978 0 0 -- --
1980 2 22 00 -13.1 101.8 971 0 0 -- --
1980 2 22 06 -13.2 101.5 964 0 0 -- --
1980 2 22 12 -13.3 101.1 956 0 0 -- --
1980 2 22 18 -13.4 100.8 950 0 0 -- --
1980 2 23 00 -13.5 100.2 945 0 0 -- --
1980 2 23 06 -13.7 99.3 940 0 0 -- --
1980 2 23 12 -13.9 98.2 936 0 0 -- --
1980 2 23 18 -14.2 97.0 930 0 0 -- --
1980 2 24 00 -14.6 95.6 930 0 0 -- --
1980 2 24 06 -15.0 94.3 930 0 0 -- --
1980 2 24 12 -15.5 93.3 930 0 0 -- --
1980 2 24 18 -15.9 92.1 930 0 0 -- --
1980 2 25 00 -16.5 90.8 930 0 0 -- --
1980 2 25 06 -17.1 89.8 930 0 0 -- --
1980 2 25 12 -17.8 88.9 930 0 0 -- --
1980 2 25 18 -18.5 88.0 938 0 0 -- --
1980 2 26 00 -19.5 87.3 945 0 0 -- --
1980 2 26 06 -20.1 87.0 954 0 0 -- --
1980 2 26 12 -20.7 86.8 963 0 0 -- --
1980 2 26 18 -21.4 86.8 969 0 0 -- --
1980 2 27 00 -22.0 86.8 975 0 0 -- --
1980 2 27 06 -22.7 86.9 982 0 0 -- --
1980 2 27 12 -23.5 87.0 988 0 0 -- --
1980 2 27 18 -24.4 87.2 994 0 0 -- --
1980 2 28 00 -25.5 87.5 1000 0 0 -- --
< Cyclone 198010 1980 Season Cyclone 198012 >

Help